Time;durP1;ratioP1;P1;durP2;ratioP2;P2;SDS_P1;SDS_P2;PMS_P1;PMS_P2;Temp;Humidity;BMP_temperature;BMP_pressure;BME280_temperature;BME280_humidity;BME280_pressure;Samples;Min_cycle;Max_cycle;Signal;HPM_P1;HPM_P2
2024/04/12 00:01:16;;;;;;;2.47;2.28;;;;;;;;;;5409053;26;57318;-73
2024/04/12 00:03:42;;;;;;;1.43;1.33;;;;;;;;;;5406574;25;56408;-73
2024/04/12 00:06:15;;;;;;;2.30;2.10;;;;;;;;;;5407370;26;56753;-73
2024/04/12 00:08:46;;;;;;;2.33;2.13;;;;;;;;;;5403128;26;57635;-73
2024/04/12 00:11:11;;;;;;;1.60;1.50;;;;;;;;;;5407943;26;56818;-74
2024/04/12 00:13:40;;;;;;;1.50;1.40;;;;;;;;;;5403579;26;57229;-73
2024/04/12 00:16:08;;;;;;;1.80;1.70;;;;;;;;;;5406622;26;58079;-72
2024/04/12 00:18:35;;;;;;;1.88;1.77;;;;;;;;;;5402614;26;58118;-72
2024/04/12 00:21:01;;;;;;;1.97;1.77;;;;;;;;;;5405637;26;57694;-73
2024/04/12 00:23:30;;;;;;;2.17;1.98;;;;;;;;;;5403811;26;56657;-72
2024/04/12 00:25:59;;;;;;;1.67;1.58;;;;;;;;;;5405537;26;57229;-73
2024/04/12 00:28:25;;;;;;;1.77;1.67;;;;;;;;;;5402633;26;58019;-73
2024/04/12 00:30:51;;;;;;;1.80;1.70;;;;;;;;;;5405508;26;56418;-74
2024/04/12 00:33:19;;;;;;;2.03;1.92;;;;;;;;;;5405220;26;56492;-74
2024/04/12 00:35:49;;;;;;;1.77;1.38;;;;;;;;;;5407996;26;57701;-74
2024/04/12 00:38:16;;;;;;;1.85;1.75;;;;;;;;;;5402711;26;55876;-73
2024/04/12 00:40:45;;;;;;;1.70;1.60;;;;;;;;;;5401814;26;57686;-72
2024/04/12 00:43:15;;;;;;;1.42;1.33;;;;;;;;;;5403279;26;56511;-73
2024/04/12 00:45:45;;;;;;;1.60;1.50;;;;;;;;;;5404709;26;57308;-73
2024/04/12 00:48:10;;;;;;;1.90;1.67;;;;;;;;;;5402046;26;57668;-73
2024/04/12 00:50:37;;;;;;;1.70;1.60;;;;;;;;;;5400649;26;56394;-74
2024/04/12 00:53:03;;;;;;;1.65;1.55;;;;;;;;;;5403935;25;58055;-73
2024/04/12 00:55:32;;;;;;;1.27;1.23;;;;;;;;;;5404291;26;57816;-73
2024/04/12 00:57:59;;;;;;;1.45;1.35;;;;;;;;;;5405845;26;56520;-73
2024/04/12 01:00:34;;;;;;;1.50;1.40;;;;;;;;;;5406124;26;57260;-73
2024/04/12 01:03:05;;;;;;;1.67;1.58;;;;;;;;;;5405553;26;56638;-74
2024/04/12 01:05:32;;;;;;;2.00;1.83;;;;;;;;;;5401684;26;57157;-73
2024/04/12 01:08:00;;;;;;;1.92;1.77;;;;;;;;;;5409539;25;56854;-74
2024/04/12 01:10:25;;;;;;;1.80;1.70;;;;;;;;;;5407714;26;56541;-73
2024/04/12 01:12:55;;;;;;;1.60;1.50;;;;;;;;;;5410206;26;56234;-74
2024/04/12 01:15:20;;;;;;;1.27;1.15;;;;;;;;;;5406740;26;57786;-74
2024/04/12 01:17:46;;;;;;;1.77;1.67;;;;;;;;;;5407346;26;56495;-74
2024/04/12 01:20:11;;;;;;;1.58;1.48;;;;;;;;;;5410566;26;57255;-73
2024/04/12 01:22:36;;;;;;;2.15;1.95;;;;;;;;;;5409028;26;56692;-74
2024/04/12 01:25:05;;;;;;;1.67;1.57;;;;;;;;;;5406368;26;56853;-73
2024/04/12 01:27:34;;;;;;;1.88;1.75;;;;;;;;;;5407383;26;57830;-73
2024/04/12 01:30:00;;;;;;;1.58;1.48;;;;;;;;;;5406250;26;56125;-74
2024/04/12 01:32:26;;;;;;;1.73;1.63;;;;;;;;;;5410826;26;57480;-74
2024/04/12 01:34:52;;;;;;;1.63;1.52;;;;;;;;;;5405288;26;57676;-72
2024/04/12 01:37:20;;;;;;;1.70;1.60;;;;;;;;;;5409500;26;56621;-72
2024/04/12 01:39:46;;;;;;;1.80;1.70;;;;;;;;;;5406604;26;57266;-72
2024/04/12 01:42:13;;;;;;;1.77;1.67;;;;;;;;;;5408169;26;56383;-72
2024/04/12 01:44:38;;;;;;;2.30;2.10;;;;;;;;;;5406741;26;56569;-72
2024/04/12 01:47:03;;;;;;;1.73;1.63;;;;;;;;;;5408860;26;58560;-72
2024/04/12 01:49:30;;;;;;;1.37;1.27;;;;;;;;;;5408871;26;56340;-72
2024/04/12 01:51:56;;;;;;;1.60;1.50;;;;;;;;;;5408083;26;57364;-72
2024/04/12 01:54:22;;;;;;;1.80;1.70;;;;;;;;;;5408318;26;57891;-72
2024/04/12 01:56:47;;;;;;;1.63;1.52;;;;;;;;;;5408017;26;56405;-72
2024/04/12 01:59:16;;;;;;;2.07;1.87;;;;;;;;;;5408546;26;56422;-71
2024/04/12 02:01:46;;;;;;;1.77;1.67;;;;;;;;;;5406318;26;57615;-73
2024/04/12 02:04:15;;;;;;;1.80;1.70;;;;;;;;;;5410215;26;56695;-72
2024/04/12 02:06:42;;;;;;;1.95;1.83;;;;;;;;;;5409449;26;58750;-72
2024/04/12 02:09:13;;;;;;;1.75;1.65;;;;;;;;;;5409916;26;56431;-71
2024/04/12 02:11:39;;;;;;;1.63;1.48;;;;;;;;;;5405465;26;57436;-72
2024/04/12 02:14:04;;;;;;;2.03;1.93;;;;;;;;;;5411566;26;57567;-72
2024/04/12 02:16:29;;;;;;;2.20;2.00;;;;;;;;;;5407717;26;56399;-72
2024/04/12 02:18:54;;;;;;;2.35;2.15;;;;;;;;;;5411008;26;57524;-72
2024/04/12 02:21:19;;;;;;;1.77;1.67;;;;;;;;;;5407140;26;57015;-72
2024/04/12 02:23:45;;;;;;;1.63;1.53;;;;;;;;;;5407210;26;56514;-72
2024/04/12 02:26:10;;;;;;;1.50;1.40;;;;;;;;;;5406311;26;57228;-72
2024/04/12 02:28:39;;;;;;;1.83;1.73;;;;;;;;;;5407584;26;56593;-72
2024/04/12 02:31:08;;;;;;;2.47;2.28;;;;;;;;;;5408880;26;57346;-72
2024/04/12 02:33:34;;;;;;;1.73;1.63;;;;;;;;;;5402715;26;58101;-73
2024/04/12 02:36:00;;;;;;;2.17;1.98;;;;;;;;;;5406297;26;56699;-72
2024/04/12 02:38:26;;;;;;;2.10;2.00;;;;;;;;;;5407025;26;56406;-72
2024/04/12 02:40:51;;;;;;;1.77;1.67;;;;;;;;;;5406522;26;58201;-72
2024/04/12 02:43:17;;;;;;;2.17;1.98;;;;;;;;;;5411488;26;56545;-72
2024/04/12 02:45:48;;;;;;;2.78;2.42;;;;;;;;;;5407909;26;57300;-73
2024/04/12 02:48:16;;;;;;;2.05;1.95;;;;;;;;;;5409499;26;58911;-73
2024/04/12 02:50:41;;;;;;;2.30;2.15;;;;;;;;;;5405980;26;57317;-74
2024/04/12 02:53:06;;;;;;;1.93;1.83;;;;;;;;;;5408000;26;58571;-73
2024/04/12 02:55:32;;;;;;;2.10;1.83;;;;;;;;;;5409897;26;56581;-74
2024/04/12 02:57:57;;;;;;;2.28;2.08;;;;;;;;;;5405490;26;56258;-73
2024/04/12 03:00:23;;;;;;;2.37;2.17;;;;;;;;;;5405891;26;57547;-73
2024/04/12 03:02:51;;;;;;;2.28;2.15;;;;;;;;;;5409421;26;56569;-73
2024/04/12 03:05:17;;;;;;;2.05;1.95;;;;;;;;;;5404363;26;57529;-74
2024/04/12 03:07:45;;;;;;;2.05;1.95;;;;;;;;;;5408705;26;57162;-74
2024/04/12 03:10:10;;;;;;;1.80;1.70;;;;;;;;;;5405964;26;56448;-74
2024/04/12 03:12:36;;;;;;;2.10;2.00;;;;;;;;;;5406103;26;57786;-74
2024/04/12 03:15:04;;;;;;;1.98;1.77;;;;;;;;;;5409344;26;56723;-74
2024/04/12 03:17:29;;;;;;;2.20;2.00;;;;;;;;;;5407801;26;57433;-73
2024/04/12 03:19:54;;;;;;;1.60;1.50;;;;;;;;;;5432407;25;59822;-73
2024/04/12 03:22:20;;;;;;;2.33;2.23;;;;;;;;;;5408747;26;56683;-74
2024/04/12 03:24:46;;;;;;;1.95;1.75;;;;;;;;;;5406912;26;56927;-74
2024/04/12 03:27:11;;;;;;;1.63;1.53;;;;;;;;;;5407426;26;58752;-73
2024/04/12 03:29:38;;;;;;;1.90;1.80;;;;;;;;;;5408490;26;56694;-74
2024/04/12 03:32:07;;;;;;;2.13;2.03;;;;;;;;;;5457149;25;57529;-74
2024/04/12 03:34:35;;;;;;;2.10;2.00;;;;;;;;;;5403395;26;56738;-74
2024/04/12 03:37:16;;;;;;;2.22;2.13;;;;;;;;;;5406759;26;57471;-74
2024/04/12 03:39:45;;;;;;;2.00;1.90;;;;;;;;;;5401509;26;57666;-74
2024/04/12 03:42:11;;;;;;;2.17;2.08;;;;;;;;;;5406779;26;56489;-74
2024/04/12 03:44:37;;;;;;;2.00;1.90;;;;;;;;;;5405615;26;57290;-74
2024/04/12 03:47:10;;;;;;;2.05;1.95;;;;;;;;;;5407177;26;57949;-73
2024/04/12 03:49:38;;;;;;;1.92;1.83;;;;;;;;;;5408416;26;56479;-74
2024/04/12 03:52:05;;;;;;;2.13;1.92;;;;;;;;;;5405129;26;57338;-74
2024/04/12 03:54:30;;;;;;;2.30;2.10;;;;;;;;;;5410344;26;58730;-73
2024/04/12 03:56:56;;;;;;;1.88;1.77;;;;;;;;;;5403438;26;57138;-73
2024/04/12 03:59:29;;;;;;;2.05;1.90;;;;;;;;;;5404393;26;58439;-73
2024/04/12 04:01:54;;;;;;;1.88;1.77;;;;;;;;;;5402409;25;56603;-74
2024/04/12 04:04:20;;;;;;;1.90;1.80;;;;;;;;;;5405744;26;56972;-74
2024/04/12 04:06:46;;;;;;;1.63;1.52;;;;;;;;;;5402660;26;58403;-74
2024/04/12 04:09:11;;;;;;;1.90;1.80;;;;;;;;;;5406702;26;56455;-74
2024/04/12 04:11:42;;;;;;;2.20;1.98;;;;;;;;;;5405887;26;57281;-73
2024/04/12 04:14:09;;;;;;;2.60;2.30;;;;;;;;;;5404132;26;57869;-74
2024/04/12 04:16:37;;;;;;;1.88;1.77;;;;;;;;;;5403735;26;56271;-73
2024/04/12 04:19:02;;;;;;;;;;;;;;;;;;5408508;26;57665;-74
2024/04/12 04:21:32;;;;;;;1.95;1.85;;;;;;;;;;5406101;26;56425;-74
2024/04/12 04:23:58;;;;;;;2.13;2.03;;;;;;;;;;5406615;26;57291;-73
2024/04/12 04:26:25;;;;;;;1.60;1.50;;;;;;;;;;5405134;26;57480;-74
2024/04/12 04:28:51;;;;;;;1.85;1.75;;;;;;;;;;5404530;25;56810;-74
2024/04/12 04:31:18;;;;;;;2.08;1.90;;;;;;;;;;5411586;26;57404;-74
2024/04/12 04:33:43;;;;;;;2.88;1.55;;;;;;;;;;5401045;26;58228;-74
2024/04/12 04:36:11;;;;;;;1.80;1.70;;;;;;;;;;5407465;26;56396;-74
2024/04/12 04:38:37;;;;;;;1.83;1.73;;;;;;;;;;5401474;26;57712;-74
2024/04/12 04:41:06;;;;;;;1.93;1.80;;;;;;;;;;5406045;26;56646;-73
2024/04/12 04:43:32;;;;;;;1.60;1.50;;;;;;;;;;5407911;26;58248;-73
2024/04/12 04:46:02;;;;;;;1.52;1.42;;;;;;;;;;5404216;26;58108;-74
2024/04/12 04:48:28;;;;;;;1.58;1.48;;;;;;;;;;5408162;26;56747;-73
2024/04/12 04:50:53;;;;;;;1.98;1.85;;;;;;;;;;5404624;26;57146;-73
2024/04/12 04:53:18;;;;;;;1.42;1.33;;;;;;;;;;5404673;26;57838;-73
2024/04/12 04:55:44;;;;;;;2.17;1.73;;;;;;;;;;5405479;26;56373;-73
2024/04/12 04:58:09;;;;;;;1.88;1.77;;;;;;;;;;5406149;26;57194;-73
2024/04/12 05:00:40;;;;;;;1.60;1.50;;;;;;;;;;5404667;26;56102;-73
2024/04/12 05:03:07;;;;;;;1.80;1.70;;;;;;;;;;5404789;26;57129;-73
2024/04/12 05:05:33;;;;;;;1.75;1.48;;;;;;;;;;5403024;26;57105;-73
2024/04/12 05:08:01;;;;;;;2.05;1.95;;;;;;;;;;5404135;26;56725;-73
2024/04/12 05:10:33;;;;;;;;;;;;;;;;;;5406307;25;57367;-73
2024/04/12 05:13:03;;;;;;;1.52;1.42;;;;;;;;;;5402600;26;57638;-73
2024/04/12 05:18:12;;;;;;;2.40;1.83;;;;;;;;;;5404180;26;56946;-71
2024/04/12 05:20:41;;;;;;;2.03;1.92;;;;;;;;;;5403046;26;57768;-70
2024/04/12 05:23:13;;;;;;;1.85;1.75;;;;;;;;;;5403176;26;57459;-71
2024/04/12 05:25:41;;;;;;;2.20;2.00;;;;;;;;;;5406451;26;58581;-71
2024/04/12 05:28:07;;;;;;;2.05;1.95;;;;;;;;;;5406749;26;56983;-71
2024/04/12 05:30:36;;;;;;;2.03;1.60;;;;;;;;;;5404972;25;58187;-71
2024/04/12 05:33:03;;;;;;;1.75;1.65;;;;;;;;;;5403214;26;57785;-71
2024/04/12 05:35:30;;;;;;;1.88;1.70;;;;;;;;;;5405650;26;56462;-70
2024/04/12 05:37:56;;;;;;;2.08;1.90;;;;;;;;;;5404373;26;58125;-70
2024/04/12 05:40:26;;;;;;;1.67;1.57;;;;;;;;;;5406270;26;57474;-71
2024/04/12 05:42:52;;;;;;;1.77;1.67;;;;;;;;;;5407607;26;56687;-71
2024/04/12 05:45:19;;;;;;;2.30;2.10;;;;;;;;;;5403390;26;56780;-70
2024/04/12 05:47:45;;;;;;;2.17;1.98;;;;;;;;;;5404559;26;56781;-71
2024/04/12 05:50:12;;;;;;;1.83;1.73;;;;;;;;;;5408460;26;57191;-72
2024/04/12 05:52:37;;;;;;;1.45;1.35;;;;;;;;;;5404085;26;57724;-71
2024/04/12 05:55:10;;;;;;;2.10;1.80;;;;;;;;;;5408747;25;55713;-71
2024/04/12 05:57:35;;;;;;;1.88;1.20;;;;;;;;;;5407784;26;57222;-72
2024/04/12 06:00:09;;;;;;;2.20;1.92;;;;;;;;;;5408237;26;57600;-72
2024/04/12 06:02:34;;;;;;;4.28;2.28;;;;;;;;;;5407508;26;56451;-73
2024/04/12 06:05:00;;;;;;;4.50;2.17;;;;;;;;;;5409131;26;57246;-73
2024/04/12 06:07:26;;;;;;;2.75;2.53;;;;;;;;;;5408009;26;56492;-72
2024/04/12 06:09:53;;;;;;;4.13;2.20;;;;;;;;;;5409054;26;56700;-73
2024/04/12 06:12:18;;;;;;;2.27;2.00;;;;;;;;;;5413867;26;58759;-72
2024/04/12 06:14:45;;;;;;;2.90;2.20;;;;;;;;;;5407855;26;56699;-73
2024/04/12 06:17:11;;;;;;;6.43;2.80;;;;;;;;;;5408677;26;57210;-74
2024/04/12 06:19:39;;;;;;;6.80;2.88;;;;;;;;;;5407752;26;57620;-75
2024/04/12 06:22:13;;;;;;;2.72;2.03;;;;;;;;;;5409138;26;56376;-75
2024/04/12 06:24:40;;;;;;;3.25;2.30;;;;;;;;;;5410312;26;57206;-72
2024/04/12 06:27:05;;;;;;;4.68;2.33;;;;;;;;;;5413473;25;56587;-72
2024/04/12 06:29:33;;;;;;;3.20;2.50;;;;;;;;;;5407281;26;57122;-72
2024/04/12 06:31:58;;;;;;;3.33;2.55;;;;;;;;;;5403368;26;58695;-74
2024/04/12 06:34:23;;;;;;;5.30;2.47;;;;;;;;;;5405499;26;56424;-74
2024/04/12 06:36:56;;;;;;;2.47;2.03;;;;;;;;;;5404871;26;57643;-73
2024/04/12 06:39:26;;;;;;;6.80;2.20;;;;;;;;;;5408716;26;58562;-74
2024/04/12 06:41:53;;;;;;;3.33;3.00;;;;;;;;;;5409821;25;56469;-73
2024/04/12 06:44:19;;;;;;;2.58;2.25;;;;;;;;;;5406301;25;57400;-74
2024/04/12 06:46:48;;;;;;;4.40;2.42;;;;;;;;;;5407724;26;57742;-75
2024/04/12 06:49:14;;;;;;;5.88;2.40;;;;;;;;;;5406372;26;56407;-74
2024/04/12 06:54:24;;;;;;;2.90;2.25;;;;;;;;;;5411323;26;56336;-74
2024/04/12 06:56:49;;;;;;;3.10;2.20;;;;;;;;;;5410327;26;57319;-76
2024/04/12 06:59:17;;;;;;;4.97;2.67;;;;;;;;;;5406113;26;57019;-76
2024/04/12 07:01:43;;;;;;;2.67;2.00;;;;;;;;;;5404793;26;56556;-75
2024/04/12 07:04:10;;;;;;;2.40;2.20;;;;;;;;;;5406750;26;57503;-74
2024/04/12 07:06:35;;;;;;;3.88;1.85;;;;;;;;;;5408932;26;57645;-73
2024/04/12 07:09:08;;;;;;;2.83;2.50;;;;;;;;;;5410354;25;56586;-72
2024/04/12 07:11:33;;;;;;;3.38;2.40;;;;;;;;;;5404700;26;57869;-73
2024/04/12 07:14:00;;;;;;;7.50;2.33;;;;;;;;;;5409029;26;56426;-76
2024/04/12 07:16:26;;;;;;;2.40;2.20;;;;;;;;;;5407379;26;57631;-75
2024/04/12 07:18:51;;;;;;;2.78;2.13;;;;;;;;;;5407832;26;58655;-75
2024/04/12 07:21:22;;;;;;;4.87;2.27;;;;;;;;;;5408765;26;56416;-76
2024/04/12 07:23:49;;;;;;;4.20;2.58;;;;;;;;;;5412477;26;57250;-75
2024/04/12 07:26:24;;;;;;;3.17;1.83;;;;;;;;;;5403606;26;59640;-75
2024/04/12 07:28:57;;;;;;;3.42;1.85;;;;;;;;;;5404153;26;56387;-75
2024/04/12 07:31:24;;;;;;;2.80;2.33;;;;;;;;;;5404498;25;57258;-75
2024/04/12 07:33:51;;;;;;;4.45;2.10;;;;;;;;;;5403193;26;56500;-75
2024/04/12 07:36:16;;;;;;;4.28;2.50;;;;;;;;;;5401810;26;57229;-75
2024/04/12 07:38:42;;;;;;;3.10;1.80;;;;;;;;;;5405358;26;58030;-75
2024/04/12 07:41:10;;;;;;;6.10;2.40;;;;;;;;;;5405954;26;56531;-75
2024/04/12 07:43:41;;;;;;;;;;;;;;;;;;5405769;26;57428;-75
2024/04/12 07:46:07;;;;;;;1.92;1.73;;;;;;;;;;5404502;26;58183;-75
2024/04/12 07:48:36;;;;;;;2.95;1.98;;;;;;;;;;5402437;26;56445;-75
2024/04/12 07:51:01;;;;;;;4.28;2.35;;;;;;;;;;5405982;26;57503;-74
2024/04/12 07:53:30;;;;;;;2.10;1.90;;;;;;;;;;5406569;26;57478;-76
2024/04/12 07:56:00;;;;;;;5.38;2.72;;;;;;;;;;5403293;26;57289;-75
2024/04/12 07:58:34;;;;;;;4.30;1.88;;;;;;;;;;5403601;26;58030;-75
2024/04/12 08:01:18;;;;;;;2.42;1.63;;;;;;;;;;5402423;26;56573;-75
2024/04/12 08:03:50;;;;;;;3.83;1.35;;;;;;;;;;5403507;26;57155;-75
2024/04/12 08:06:36;;;;;;;3.13;1.90;;;;;;;;;;5405383;26;58770;-74
2024/04/12 08:09:04;;;;;;;2.83;2.50;;;;;;;;;;5401590;26;56683;-74
2024/04/12 08:11:35;;;;;;;;;;;;;;;;;;5402404;26;57438;-74
2024/04/12 08:14:05;;;;;;;2.53;2.33;;;;;;;;;;5403890;26;57898;-74
2024/04/12 08:16:37;;;;;;;3.33;2.20;;;;;;;;;;5402723;26;56645;-74
2024/04/12 08:19:13;;;;;;;2.30;1.63;;;;;;;;;;5404401;26;57782;-77
2024/04/12 08:21:44;;;;;;;1.95;1.50;;;;;;;;;;5403866;26;56475;-75
2024/04/12 08:24:11;;;;;;;4.18;1.90;;;;;;;;;;5400907;26;56827;-74
2024/04/12 08:26:45;;;;;;;1.65;1.40;;;;;;;;;;5405871;26;58181;-76
2024/04/12 08:29:19;;;;;;;6.40;1.90;;;;;;;;;;5409566;26;56639;-74
2024/04/12 08:31:47;;;;;;;2.92;1.90;;;;;;;;;;5405049;26;57526;-75
2024/04/12 08:34:14;;;;;;;2.05;1.95;;;;;;;;;;5407861;26;57622;-75
2024/04/12 08:36:39;;;;;;;2.15;1.95;;;;;;;;;;5407069;26;56449;-76
2024/04/12 08:39:25;;;;;;;3.55;1.80;;;;;;;;;;5402546;26;56591;-76
2024/04/12 08:41:57;;;;;;;2.42;1.90;;;;;;;;;;5407765;26;56428;-76
2024/04/12 08:44:23;;;;;;;3.03;1.30;;;;;;;;;;5405946;26;58242;-75
2024/04/12 08:46:50;;;;;;;2.85;1.70;;;;;;;;;;5409378;25;58594;-74
2024/04/12 08:49:17;;;;;;;2.13;2.03;;;;;;;;;;5407065;26;56534;-74
2024/04/12 08:51:46;;;;;;;2.03;1.87;;;;;;;;;;5406190;26;57981;-73
2024/04/12 08:54:15;;;;;;;1.85;1.55;;;;;;;;;;5406090;26;57883;-74
2024/04/12 08:56:45;;;;;;;2.83;1.38;;;;;;;;;;5406202;26;56635;-74
2024/04/12 08:59:17;;;;;;;2.05;1.85;;;;;;;;;;5401705;26;58208;-74
2024/04/12 09:01:42;;;;;;;2.35;2.05;;;;;;;;;;5405889;26;56494;-73
2024/04/12 09:04:14;;;;;;;2.35;2.15;;;;;;;;;;5406130;26;58883;-73
2024/04/12 09:06:39;;;;;;;1.65;1.23;;;;;;;;;;5404468;26;57784;-73
2024/04/12 09:09:04;;;;;;;2.80;1.60;;;;;;;;;;5407343;26;56774;-73
2024/04/12 09:11:31;;;;;;;2.40;1.83;;;;;;;;;;5405894;26;57275;-73
2024/04/12 09:14:08;;;;;;;1.73;1.52;;;;;;;;;;5406753;26;57761;-73
2024/04/12 09:16:43;;;;;;;1.70;1.60;;;;;;;;;;5405214;26;58653;-73
2024/04/12 09:19:13;;;;;;;2.05;1.50;;;;;;;;;;5402473;26;57226;-72
2024/04/12 09:21:47;;;;;;;1.98;1.70;;;;;;;;;;5404803;26;57919;-72
2024/04/12 09:24:15;;;;;;;1.75;1.10;;;;;;;;;;5404805;26;57418;-72
2024/04/12 09:26:55;;;;;;;2.85;1.55;;;;;;;;;;5407651;26;57872;-72
2024/04/12 09:29:26;;;;;;;3.55;1.60;;;;;;;;;;5408092;26;56616;-72
2024/04/12 09:34:39;;;;;;;1.58;1.30;;;;;;;;;;5408730;26;56808;-72
2024/04/12 09:37:28;;;;;;;2.28;1.45;;;;;;;;;;5409515;26;56560;-72
2024/04/12 09:42:28;;;;;;;1.40;1.23;;;;;;;;;;5409447;26;56648;-72
2024/04/12 09:44:59;;;;;;;2.83;1.45;;;;;;;;;;5410152;26;56990;-72
2024/04/12 10:39:44;;;;;;;2.67;1.05;;;;;;;;;;5405400;26;56405;-75
2024/04/12 10:42:13;;;;;;;1.90;1.27;;;;;;;;;;5411289;26;56862;-74
2024/04/12 10:44:40;;;;;;;2.85;1.25;;;;;;;;;;5409416;26;56866;-76
2024/04/12 10:47:12;;;;;;;2.67;1.20;;;;;;;;;;5403903;26;57574;-76
2024/04/12 10:49:37;;;;;;;2.58;1.95;;;;;;;;;;5406384;26;56525;-76
2024/04/12 10:52:03;;;;;;;5.05;1.42;;;;;;;;;;5407002;26;57079;-74
2024/04/12 10:54:32;;;;;;;1.77;1.40;;;;;;;;;;5408853;26;58086;-76
2024/04/12 10:56:58;;;;;;;1.50;1.40;;;;;;;;;;5402483;26;57368;-77
2024/04/12 10:59:30;;;;;;;3.80;1.77;;;;;;;;;;5408790;26;58716;-76
2024/04/12 11:01:59;;;;;;;1.92;1.83;;;;;;;;;;5405305;26;56383;-76
2024/04/12 11:04:28;;;;;;;2.13;1.17;;;;;;;;;;5411051;26;58373;-76
2024/04/12 11:06:54;;;;;;;4.38;2.25;;;;;;;;;;5410748;26;57690;-76
2024/04/12 11:09:30;;;;;;;1.45;1.30;;;;;;;;;;5408512;26;56658;-76
2024/04/12 11:12:00;;;;;;;1.70;1.35;;;;;;;;;;5409891;26;57640;-75
2024/04/12 11:14:27;;;;;;;1.63;1.40;;;;;;;;;;5408898;26;58597;-74
2024/04/12 11:33:31;;;;;;;2.85;1.42;;;;;;;;;;5407910;25;56527;-73
2024/04/12 11:35:58;;;;;;;4.18;1.13;;;;;;;;;;5406732;26;56787;-73
2024/04/12 11:38:23;;;;;;;1.08;0.98;;;;;;;;;;5406753;26;55927;-73
2024/04/12 11:40:49;;;;;;;1.50;1.40;;;;;;;;;;5407252;26;57241;-74
2024/04/12 11:43:14;;;;;;;4.30;1.53;;;;;;;;;;5410516;26;56442;-74
2024/04/12 11:45:41;;;;;;;1.40;1.30;;;;;;;;;;5406258;26;57314;-73
2024/04/12 11:48:12;;;;;;;1.13;1.02;;;;;;;;;;5405263;25;57819;-73
2024/04/12 11:50:41;;;;;;;2.33;1.27;;;;;;;;;;5403013;26;56649;-74
2024/04/12 11:53:10;;;;;;;1.77;1.48;;;;;;;;;;5405170;26;57211;-73
2024/04/12 11:55:35;;;;;;;1.60;1.50;;;;;;;;;;5405344;26;57691;-73
2024/04/12 11:58:00;;;;;;;1.98;1.60;;;;;;;;;;5405132;25;57058;-73
2024/04/12 12:00:27;;;;;;;1.60;1.50;;;;;;;;;;5406152;26;57195;-73
2024/04/12 12:02:52;;;;;;;0.85;0.82;;;;;;;;;;5405888;26;59085;-73
2024/04/12 12:05:17;;;;;;;1.17;1.13;;;;;;;;;;5406827;26;56707;-72
2024/04/12 12:07:46;;;;;;;1.77;1.10;;;;;;;;;;5406030;26;56726;-73
2024/04/12 12:10:11;;;;;;;1.00;1.00;;;;;;;;;;5406582;26;55951;-71
2024/04/12 12:12:37;;;;;;;2.67;1.58;;;;;;;;;;5407456;26;57259;-72
2024/04/12 12:15:06;;;;;;;1.13;0.98;;;;;;;;;;5405855;26;56865;-73
2024/04/12 12:17:31;;;;;;;;;;;;;;;;;;5410366;25;56245;-74
2024/04/12 12:19:57;;;;;;;1.30;1.00;;;;;;;;;;5405605;26;58430;-72
2024/04/12 12:22:22;;;;;;;1.30;1.13;;;;;;;;;;5403652;26;58440;-74
2024/04/12 12:24:48;;;;;;;1.40;1.30;;;;;;;;;;5408538;26;56740;-74
2024/04/12 12:27:13;;;;;;;1.50;1.40;;;;;;;;;;5403989;26;57631;-72
2024/04/12 12:29:38;;;;;;;1.03;1.03;;;;;;;;;;5402120;26;56409;-72
2024/04/12 12:32:06;;;;;;;1.30;1.17;;;;;;;;;;5401606;26;56593;-73
2024/04/12 12:34:33;;;;;;;1.95;1.75;;;;;;;;;;5400707;26;57762;-73
2024/04/12 12:36:59;;;;;;;1.75;1.52;;;;;;;;;;5406135;26;56542;-73
2024/04/12 12:39:30;;;;;;;2.13;1.75;;;;;;;;;;5406894;26;57309;-73
2024/04/12 12:41:55;;;;;;;2.22;1.33;;;;;;;;;;5405082;26;57878;-74
2024/04/12 12:44:22;;;;;;;2.00;1.90;;;;;;;;;;5407802;26;56011;-73
2024/04/12 12:46:48;;;;;;;2.28;1.58;;;;;;;;;;5408578;26;57164;-74
2024/04/12 12:49:13;;;;;;;1.05;1.00;;;;;;;;;;5404081;26;56465;-73
2024/04/12 12:51:40;;;;;;;1.17;0.90;;;;;;;;;;5407856;26;56250;-73
2024/04/12 12:54:06;;;;;;;1.42;1.20;;;;;;;;;;5406278;26;58752;-73
2024/04/12 12:56:31;;;;;;;1.27;1.17;;;;;;;;;;5404748;26;56505;-73
2024/04/12 12:58:59;;;;;;;1.30;0.90;;;;;;;;;;5403072;26;57148;-73
2024/04/12 13:01:27;;;;;;;1.33;1.10;;;;;;;;;;5409560;26;57770;-73
2024/04/12 13:04:02;;;;;;;1.20;1.10;;;;;;;;;;5407616;26;56394;-73
2024/04/12 13:06:27;;;;;;;1.38;1.00;;;;;;;;;;5408800;25;57423;-73
2024/04/12 13:08:53;;;;;;;1.23;1.15;;;;;;;;;;5408571;26;56448;-73
2024/04/12 13:11:24;;;;;;;1.15;1.05;;;;;;;;;;5403978;26;58005;-73
2024/04/12 13:13:50;;;;;;;2.92;1.10;;;;;;;;;;5406164;26;57703;-73
2024/04/12 13:16:16;;;;;;;1.00;0.90;;;;;;;;;;5406671;25;56673;-72
2024/04/12 13:18:45;;;;;;;1.20;1.10;;;;;;;;;;5406804;26;57362;-73
2024/04/12 13:21:11;;;;;;;1.65;1.10;;;;;;;;;;5403802;26;58525;-72
2024/04/12 13:23:36;;;;;;;1.63;1.40;;;;;;;;;;5404184;26;56762;-73
2024/04/12 13:26:01;;;;;;;1.10;1.02;;;;;;;;;;5407182;26;58253;-73
2024/04/12 13:28:29;;;;;;;1.50;1.20;;;;;;;;;;5407631;26;58034;-72
2024/04/12 13:30:54;;;;;;;1.23;1.13;;;;;;;;;;5407933;26;57252;-73
2024/04/12 13:33:19;;;;;;;1.73;1.43;;;;;;;;;;5408177;26;57660;-73
2024/04/12 13:35:46;;;;;;;2.03;1.48;;;;;;;;;;5407054;25;56671;-72
2024/04/12 13:38:12;;;;;;;1.77;1.67;;;;;;;;;;5404576;26;58648;-73
2024/04/12 13:40:42;;;;;;;0.95;0.95;;;;;;;;;;5404830;26;58071;-73
2024/04/12 13:43:13;;;;;;;2.65;0.98;;;;;;;;;;5406533;26;56698;-72
2024/04/12 13:51:10;;;;;;;0.85;0.55;;;;;;;;;;5406003;26;56452;-73
2024/04/12 13:53:38;;;;;;;0.90;0.80;;;;;;;;;;5408467;26;58340;-73
2024/04/12 13:58:49;;;;;;;0.80;0.80;;;;;;;;;;5408431;26;56683;-73
2024/04/12 14:01:15;;;;;;;1.90;0.85;;;;;;;;;;5406182;26;58759;-73
2024/04/12 14:03:40;;;;;;;0.80;0.77;;;;;;;;;;5407073;26;56889;-73
2024/04/12 14:06:05;;;;;;;2.13;0.57;;;;;;;;;;5405419;26;58047;-73
2024/04/12 14:08:30;;;;;;;1.30;0.77;;;;;;;;;;5404760;26;57173;-73
2024/04/12 14:10:55;;;;;;;0.68;0.68;;;;;;;;;;5407688;26;56812;-73
2024/04/12 14:13:22;;;;;;;0.70;0.70;;;;;;;;;;5404918;26;57895;-72
2024/04/12 14:15:47;;;;;;;1.17;0.75;;;;;;;;;;5404949;26;57251;-74
2024/04/12 14:18:14;;;;;;;0.53;0.53;;;;;;;;;;5405865;26;58110;-73
2024/04/12 14:20:40;;;;;;;3.58;0.70;;;;;;;;;;5409661;25;56902;-73
2024/04/12 14:23:05;;;;;;;0.85;0.85;;;;;;;;;;5406204;26;56927;-73
2024/04/12 14:25:30;;;;;;;1.30;0.80;;;;;;;;;;5410681;26;57716;-73
2024/04/12 14:27:55;;;;;;;1.03;0.70;;;;;;;;;;5406208;25;57550;-73
2024/04/12 14:30:20;;;;;;;0.75;0.75;;;;;;;;;;5409506;26;56660;-73
2024/04/12 14:32:50;;;;;;;0.77;0.73;;;;;;;;;;5406592;26;58881;-73
2024/04/12 14:35:16;;;;;;;0.60;0.60;;;;;;;;;;5409843;26;58265;-73
2024/04/12 14:37:41;;;;;;;1.77;1.47;;;;;;;;;;5410792;26;58307;-73
2024/04/12 14:40:06;;;;;;;0.77;0.55;;;;;;;;;;5405406;26;58451;-71
2024/04/12 14:42:31;;;;;;;0.63;0.55;;;;;;;;;;5404825;26;57240;-72
2024/04/12 14:45:06;;;;;;;0.50;0.50;;;;;;;;;;5402026;25;56880;-73
2024/04/12 14:47:31;;;;;;;0.40;0.40;;;;;;;;;;5404123;26;58747;-72
2024/04/12 14:49:56;;;;;;;0.93;0.73;;;;;;;;;;5408807;26;56839;-71
2024/04/12 14:52:22;;;;;;;0.30;0.30;;;;;;;;;;5408924;25;57874;-72
2024/04/12 14:54:47;;;;;;;0.57;0.50;;;;;;;;;;5406219;26;58716;-71
2024/04/12 14:57:12;;;;;;;0.60;0.50;;;;;;;;;;5405528;25;56736;-72
2024/04/12 14:59:37;;;;;;;0.60;0.50;;;;;;;;;;5408234;25;57581;-72
2024/04/12 15:02:05;;;;;;;0.47;0.47;;;;;;;;;;5409626;26;56878;-74
2024/04/12 15:48:14;;;;;;;0.43;0.35;;;;;;;;;;5411570;26;56887;-74
2024/04/12 15:50:39;;;;;;;0.37;0.30;;;;;;;;;;5405455;26;58483;-74
2024/04/12 15:53:25;;;;;;;0.73;0.40;;;;;;;;;;5404880;25;57140;-74
2024/04/12 16:11:55;;;;;;;0.30;0.30;;;;;;;;;;5404992;26;56856;-74
2024/04/12 16:14:21;;;;;;;0.20;0.20;;;;;;;;;;5403552;26;56716;-74
2024/04/12 16:16:48;;;;;;;0.27;0.27;;;;;;;;;;5407082;25;57904;-73
2024/04/12 16:19:14;;;;;;;0.65;0.55;;;;;;;;;;5405573;26;57121;-74
2024/04/12 16:21:39;;;;;;;0.88;0.75;;;;;;;;;;5407712;26;56825;-73
2024/04/12 16:24:04;;;;;;;0.65;0.40;;;;;;;;;;5408015;26;56883;-74
2024/04/12 16:26:29;;;;;;;0.47;0.37;;;;;;;;;;5402971;26;56862;-74
2024/04/12 16:28:54;;;;;;;0.40;0.40;;;;;;;;;;5406149;26;56732;-74
2024/04/12 16:31:19;;;;;;;0.82;0.68;;;;;;;;;;5410624;26;58800;-74
2024/04/12 16:33:44;;;;;;;0.50;0.30;;;;;;;;;;5409763;26;56844;-74
2024/04/12 16:36:09;;;;;;;0.20;0.20;;;;;;;;;;5406505;25;58168;-74
2024/04/12 16:38:35;;;;;;;1.03;0.90;;;;;;;;;;5403663;26;56701;-74
2024/04/12 16:41:00;;;;;;;0.23;0.23;;;;;;;;;;5404484;26;56744;-72
2024/04/12 16:43:26;;;;;;;1.07;0.70;;;;;;;;;;5403869;26;57897;-75
2024/04/12 16:45:52;;;;;;;2.03;0.50;;;;;;;;;;5403987;26;57623;-74
2024/04/12 16:48:17;;;;;;;0.90;0.47;;;;;;;;;;5404566;26;56867;-74
2024/04/12 16:50:42;;;;;;;1.70;0.43;;;;;;;;;;5404214;26;58341;-74
2024/04/12 16:53:07;;;;;;;2.40;0.55;;;;;;;;;;5406704;26;56805;-72
2024/04/12 16:55:32;;;;;;;1.83;1.30;;;;;;;;;;5402993;26;58278;-74
2024/04/12 16:57:59;;;;;;;1.73;0.60;;;;;;;;;;5405509;26;56904;-75
2024/04/12 17:00:26;;;;;;;5.05;0.60;;;;;;;;;;5405530;26;56796;-75
2024/04/12 17:02:51;;;;;;;5.50;1.05;;;;;;;;;;5405472;26;58334;-75
2024/04/12 17:05:19;;;;;;;4.23;0.60;;;;;;;;;;5403933;26;58613;-75
2024/04/12 17:07:45;;;;;;;1.33;0.68;;;;;;;;;;5404500;26;56856;-75
2024/04/12 17:10:10;;;;;;;3.60;0.95;;;;;;;;;;5406995;25;59005;-75
2024/04/12 17:12:35;;;;;;;3.10;0.73;;;;;;;;;;5405548;26;57560;-76
2024/04/12 17:15:03;;;;;;;2.28;1.10;;;;;;;;;;5404028;25;58013;-76